This is the latest recevied weather packets stored in our database for station/object W5HKR. If no packets are shown the sender has not sent any weather packets the latest 10 day(s).
| Time | Temp. | Humidity | Pressure | Rain* | Wind** | Luminosity | Snow |
|---|---|---|---|---|---|---|---|
| 1777887209 | 16.11° C | 84% | 986.6 hPa | 0 mm | - | - | - |
| 1777886880 | 16.11° C | 84% | 987 hPa | 0 mm | - | - | - |
| 1777886609 | 18.33° C | 91% | 990.6 hPa | 0 mm | - | - | - |
| 1777886311 | 16.11° C | 84% | 987.1 hPa | 0 mm | - | - | - |
| 1777886009 | 16.67° C | 83% | 987.1 hPa | 0 mm | - | - | - |
| 1777885801 | 18.33° C | 91% | 990.6 hPa | 0 mm | - | - | - |
| 1777885709 | 16.67° C | 83% | 987.2 hPa | 0 mm | - | - | - |
| 1777885409 | 18.33° C | 91% | 990.6 hPa | 0 mm | - | - | - |
| 1777885109 | 16.67° C | 83% | 987.3 hPa | 0 mm | - | - | - |
| 1777884808 | 18.33° C | 91% | 990.6 hPa | 0 mm | - | - | - |
| 1777884721 | 18.33° C | 91% | 990.6 hPa | 0 mm | - | - | - |
| 1777884508 | 16.67° C | 83% | 987.2 hPa | 0 mm | - | - | - |
| 1777883908 | 16.67° C | 82% | 987.5 hPa | 0 mm | - | - | - |
| 1777883641 | 16.67° C | 82% | 986.5 hPa | 0 mm | - | - | - |
| 1777883608 | 18.33° C | 91% | 990.6 hPa | 0 mm | - | - | - |
| 1777883308 | 16.67° C | 81% | 987.5 hPa | 0 mm | - | - | - |
| 1777883009 | 18.33° C | 91% | 990.6 hPa | 0 mm | - | - | - |
| 1777882710 | 18.33° C | 91% | 990.6 hPa | 0 mm | - | - | - |
| 1777882559 | 18.33° C | 91% | 990.6 hPa | 0 mm | - | - | - |
| 1777882409 | 16.67° C | 81% | 987.7 hPa | 0 mm | - | - | - |
| 1777881809 | 17.22° C | 80% | 987.1 hPa | 0 mm | - | - | - |
| 1777881480 | 17.22° C | 80% | 987.1 hPa | 0 mm | - | - | - |
| 1777881209 | 18.33° C | 91% | 990.6 hPa | 0 mm | - | - | - |
| 1777880608 | 18.33° C | 91% | 990.6 hPa | 0 mm | - | - | - |
| 1777880399 | 18.33° C | 91% | 990.6 hPa | 0 mm | - | - | - |
* Rain latest hour (hover to see other rain measurements)
** Current wind speed in m/s (hover to see current wind gust speed)